Flight Track Log - Related Links

Times and Time Zones

All times are in EDT time to prevent confusion due to time zone crossing. See the SWA1688 flight status page for this flight to view local times or setup timezone preferences in your user account.

Time Position Orientation Groundspeed Altitude Reporting Facility
EDT Latitude Longitude Course Direction KTS MPH feet Rate Location/Type
Sat 11:05:50 AM 39.1833 -76.7000 237° Southwest 158 182 1,700  Level Potomac TRACON
Sat 11:06:50 AM 39.1500 -76.7667 237° Southwest 231 266 3,800 2,500 Climbing Potomac TRACON
Sat 11:07:50 AM 39.0833 -76.7167 150° Southeast 294 338 6,700 3,250 Climbing Potomac TRACON
Sat 11:08:50 AM 39.0333 -76.6333 128° Southeast 297 342 10,300 2,863 Climbing Potomac TRACON
Sat 11:10:23 AM 38.9050 -76.5972 168° South 307 353 14,000 1,480 Climbing Washington Center
Sat 11:11:20 AM 38.8156 -76.5800 171° South 318 366 14,000  Level Washington Center
Sat 11:12:22 AM 38.7303 -76.5631 171° South 323 372 14,000  Level Washington Center
Sat 11:13:22 AM 38.6428 -76.5433 170° South 323 372 14,000  Level Washington Center
Sat 11:14:23 AM 38.5533 -76.5236 170° South 323 372 14,000  Level Washington Center
Sat 11:15:23 AM 38.4658 -76.5067 171° South 323 372 14,000  Level Washington Center
Sat 11:16:21 AM 38.3742 -76.4894 172° South 323 372 14,000  Level Washington Center
Sat 11:17:22 AM 38.2872 -76.4222 149° Southeast 328 377 14,000  Level Washington Center
Sat 11:18:22 AM 38.2042 -76.3686 153° Southeast 333 383 14,000  Level Washington Center
Sat 11:19:23 AM 38.1208 -76.3203 155° Southeast 333 383 14,000  Level Washington Center
Sat 11:20:23 AM 38.0378 -76.2667 153° Southeast 333 383 14,000  Level Washington Center
Sat 11:21:23 AM 37.9503 -76.2475 170° South 333 383 14,000  Level Washington Center
Sat 11:22:18 AM 37.8669 -76.2467 180° South 325 374 14,000 -71 Level Washington Center
Sat 11:22:48 AM 37.8211 -76.2489 182° South 321 369 13,900 -381 Descending Washington Center
Sat 11:23:21 AM 37.7731 -76.2486 180° South 320 368 13,600 -846 Descending Washington Center
Sat 11:24:06 AM 37.7167 -76.2558 186° South 285 328 12,800 -1,000 Descending Washington Center
Sat 11:24:21 AM 37.6939 -76.2453 160° South 306 352 12,600 -938 Descending Washington Center
Sat 11:25:10 AM 37.6375 -76.2292 167° South 294 338 11,800 -1,065 Descending Washington Center
Sat 11:26:08 AM 37.5583 -76.2100 169° South 288 331 10,700 -1,068 Descending Washington Center
Sat 11:26:23 AM 37.5375 -76.1994 158° South 293 337 10,500 -941 Descending Washington Center
Sat 11:26:59 AM 37.4917 -76.1886 169° South 280 322 9,900 -1,100 Descending Washington Center
Sat 11:27:23 AM 37.4647 -76.1781 163° South 283 326 9,400 -1,333 Descending Washington Center
Sat 11:27:53 AM 37.4292 -76.1697 169° South 254 292 8,700 -1,345 Descending Washington Center
Sat 11:28:21 AM 37.3961 -76.1564 162° South 275 316 8,100 -1,325 Descending Washington Center
Sat 11:29:10 AM 37.3397 -76.1431 169° South 251 289 7,000 -1,459 Descending Washington Center
Sat 11:30:12 AM 37.2711 -76.1192 165° South 254 292 5,400 -1,500 Descending Washington Center
Sat 11:31:06 AM 37.2064 -76.1031 169° South 255 293 4,100 -1,371 Descending Washington Center
Sat 11:31:22 AM 37.1939 -76.0978 161° South 258 297 3,800 -1,180 Descending Washington Center
Sat 11:32:07 AM 37.1397 -76.0842 169° South 248 285 2,900 -1,161 Descending Washington Center
Sat 11:32:55 AM 37.0875 -76.0814 178° South 231 266 2,000 -1,125 Descending Washington Center

Login

Don't have an account? Register now (free) for customized features, flight alerts, and more!